sensor_id;sensor_type;location;lat;lon;timestamp;P1;durP1;ratioP1;P2;durP2;ratioP2
6053;SDS011;3055;50.886;14.814;2023-01-28T00:02:24;38.17;;;22.03;;
6053;SDS011;3055;50.886;14.814;2023-01-28T00:04:51;38.40;;;21.03;;
6053;SDS011;3055;50.886;14.814;2023-01-28T00:07:18;38.67;;;20.67;;
6053;SDS011;3055;50.886;14.814;2023-01-28T00:09:47;38.40;;;21.27;;
6053;SDS011;3055;50.886;14.814;2023-01-28T00:12:14;38.43;;;20.40;;
6053;SDS011;3055;50.886;14.814;2023-01-28T00:14:41;38.53;;;20.70;;
6053;SDS011;3055;50.886;14.814;2023-01-28T00:17:10;41.57;;;20.87;;
6053;SDS011;3055;50.886;14.814;2023-01-28T00:19:37;39.03;;;20.20;;
6053;SDS011;3055;50.886;14.814;2023-01-28T00:22:04;35.97;;;19.80;;
6053;SDS011;3055;50.886;14.814;2023-01-28T00:24:31;36.73;;;19.17;;
6053;SDS011;3055;50.886;14.814;2023-01-28T00:27:00;32.50;;;19.47;;
6053;SDS011;3055;50.886;14.814;2023-01-28T00:29:27;32.80;;;18.43;;
6053;SDS011;3055;50.886;14.814;2023-01-28T00:31:54;40.30;;;20.23;;
6053;SDS011;3055;50.886;14.814;2023-01-28T00:34:21;33.77;;;18.27;;
6053;SDS011;3055;50.886;14.814;2023-01-28T00:36:48;40.50;;;20.63;;
6053;SDS011;3055;50.886;14.814;2023-01-28T00:39:21;36.97;;;19.20;;
6053;SDS011;3055;50.886;14.814;2023-01-28T00:41:49;36.93;;;20.53;;
6053;SDS011;3055;50.886;14.814;2023-01-28T00:44:18;42.47;;;20.87;;
6053;SDS011;3055;50.886;14.814;2023-01-28T00:46:45;42.30;;;19.57;;
6053;SDS011;3055;50.886;14.814;2023-01-28T00:49:13;39.37;;;19.67;;
6053;SDS011;3055;50.886;14.814;2023-01-28T00:51:40;40.63;;;20.00;;
6053;SDS011;3055;50.886;14.814;2023-01-28T00:54:07;37.70;;;19.27;;
6053;SDS011;3055;50.886;14.814;2023-01-28T00:56:36;38.27;;;19.53;;
6053;SDS011;3055;50.886;14.814;2023-01-28T00:59:03;41.83;;;19.93;;
6053;SDS011;3055;50.886;14.814;2023-01-28T01:01:32;38.27;;;20.23;;
6053;SDS011;3055;50.886;14.814;2023-01-28T01:03:59;35.30;;;18.67;;
6053;SDS011;3055;50.886;14.814;2023-01-28T01:06:28;35.20;;;17.77;;
6053;SDS011;3055;50.886;14.814;2023-01-28T01:08:56;31.47;;;16.17;;
6053;SDS011;3055;50.886;14.814;2023-01-28T01:11:24;28.87;;;17.17;;
6053;SDS011;3055;50.886;14.814;2023-01-28T01:13:52;29.93;;;16.17;;
6053;SDS011;3055;50.886;14.814;2023-01-28T01:16:21;28.30;;;16.07;;
6053;SDS011;3055;50.886;14.814;2023-01-28T01:18:51;28.57;;;15.40;;
6053;SDS011;3055;50.886;14.814;2023-01-28T01:21:20;29.03;;;16.73;;
6053;SDS011;3055;50.886;14.814;2023-01-28T01:23:50;29.27;;;16.23;;
6053;SDS011;3055;50.886;14.814;2023-01-28T01:26:18;31.23;;;16.23;;
6053;SDS011;3055;50.886;14.814;2023-01-28T01:28:45;30.03;;;16.00;;
6053;SDS011;3055;50.886;14.814;2023-01-28T01:31:13;35.07;;;17.20;;
6053;SDS011;3055;50.886;14.814;2023-01-28T01:33:41;29.83;;;16.03;;
6053;SDS011;3055;50.886;14.814;2023-01-28T01:36:11;24.00;;;14.67;;
6053;SDS011;3055;50.886;14.814;2023-01-28T01:38:39;22.13;;;14.70;;
6053;SDS011;3055;50.886;14.814;2023-01-28T01:41:07;23.77;;;14.33;;
6053;SDS011;3055;50.886;14.814;2023-01-28T01:43:47;28.80;;;14.90;;
6053;SDS011;3055;50.886;14.814;2023-01-28T01:46:16;26.83;;;14.63;;
6053;SDS011;3055;50.886;14.814;2023-01-28T01:48:47;23.23;;;13.90;;
6053;SDS011;3055;50.886;14.814;2023-01-28T01:51:16;24.63;;;13.57;;
6053;SDS011;3055;50.886;14.814;2023-01-28T01:53:47;25.77;;;14.67;;
6053;SDS011;3055;50.886;14.814;2023-01-28T01:56:18;25.20;;;13.83;;
6053;SDS011;3055;50.886;14.814;2023-01-28T01:58:49;24.00;;;14.10;;
6053;SDS011;3055;50.886;14.814;2023-01-28T02:01:19;24.40;;;15.00;;
6053;SDS011;3055;50.886;14.814;2023-01-28T02:03:50;22.63;;;14.53;;
6053;SDS011;3055;50.886;14.814;2023-01-28T02:06:23;23.53;;;14.97;;
6053;SDS011;3055;50.886;14.814;2023-01-28T02:08:52;20.83;;;13.50;;
6053;SDS011;3055;50.886;14.814;2023-01-28T02:11:20;20.33;;;14.30;;
6053;SDS011;3055;50.886;14.814;2023-01-28T02:13:51;21.83;;;13.30;;
6053;SDS011;3055;50.886;14.814;2023-01-28T02:16:21;21.60;;;14.37;;
6053;SDS011;3055;50.886;14.814;2023-01-28T02:18:49;18.30;;;13.30;;
6053;SDS011;3055;50.886;14.814;2023-01-28T02:21:25;24.47;;;14.90;;
6053;SDS011;3055;50.886;14.814;2023-01-28T02:24:15;26.07;;;15.37;;
6053;SDS011;3055;50.886;14.814;2023-01-28T02:26:59;26.70;;;13.63;;
6053;SDS011;3055;50.886;14.814;2023-01-28T02:29:40;29.40;;;15.67;;
6053;SDS011;3055;50.886;14.814;2023-01-28T02:32:14;28.57;;;16.63;;
6053;SDS011;3055;50.886;14.814;2023-01-28T02:34:47;27.23;;;16.33;;
6053;SDS011;3055;50.886;14.814;2023-01-28T02:37:21;25.87;;;15.00;;
6053;SDS011;3055;50.886;14.814;2023-01-28T02:39:53;27.83;;;16.07;;
6053;SDS011;3055;50.886;14.814;2023-01-28T02:42:24;23.53;;;14.80;;
6053;SDS011;3055;50.886;14.814;2023-01-28T02:44:56;18.80;;;12.83;;
6053;SDS011;3055;50.886;14.814;2023-01-28T02:47:23;22.57;;;13.30;;
6053;SDS011;3055;50.886;14.814;2023-01-28T02:50:07;21.83;;;14.47;;
6053;SDS011;3055;50.886;14.814;2023-01-28T02:52:45;20.50;;;13.57;;
6053;SDS011;3055;50.886;14.814;2023-01-28T02:55:40;22.53;;;14.23;;
6053;SDS011;3055;50.886;14.814;2023-01-28T02:58:15;20.93;;;14.77;;
6053;SDS011;3055;50.886;14.814;2023-01-28T03:00:51;20.23;;;14.37;;
6053;SDS011;3055;50.886;14.814;2023-01-28T03:03:27;22.70;;;15.23;;
6053;SDS011;3055;50.886;14.814;2023-01-28T03:06:02;20.33;;;13.87;;
6053;SDS011;3055;50.886;14.814;2023-01-28T03:08:34;22.20;;;14.53;;
6053;SDS011;3055;50.886;14.814;2023-01-28T03:11:22;25.83;;;17.10;;
6053;SDS011;3055;50.886;14.814;2023-01-28T03:14:08;24.30;;;15.67;;
6053;SDS011;3055;50.886;14.814;2023-01-28T03:16:55;24.93;;;15.07;;
6053;SDS011;3055;50.886;14.814;2023-01-28T03:19:44;23.30;;;15.53;;
6053;SDS011;3055;50.886;14.814;2023-01-28T03:22:29;23.10;;;14.80;;
6053;SDS011;3055;50.886;14.814;2023-01-28T03:25:19;19.20;;;13.57;;
6053;SDS011;3055;50.886;14.814;2023-01-28T03:28:07;24.13;;;15.63;;
6053;SDS011;3055;50.886;14.814;2023-01-28T03:30:55;21.20;;;14.40;;
6053;SDS011;3055;50.886;14.814;2023-01-28T03:33:45;21.03;;;14.20;;
6053;SDS011;3055;50.886;14.814;2023-01-28T03:36:30;20.00;;;14.70;;
6053;SDS011;3055;50.886;14.814;2023-01-28T03:39:12;20.17;;;13.00;;
6053;SDS011;3055;50.886;14.814;2023-01-28T03:41:39;25.97;;;14.47;;
6053;SDS011;3055;50.886;14.814;2023-01-28T03:44:07;22.73;;;14.67;;
6053;SDS011;3055;50.886;14.814;2023-01-28T03:46:52;20.63;;;15.20;;
6053;SDS011;3055;50.886;14.814;2023-01-28T03:49:20;20.00;;;14.43;;
6053;SDS011;3055;50.886;14.814;2023-01-28T03:51:47;24.27;;;14.30;;
6053;SDS011;3055;50.886;14.814;2023-01-28T03:54:14;23.20;;;16.03;;
6053;SDS011;3055;50.886;14.814;2023-01-28T03:56:41;25.33;;;16.97;;
6053;SDS011;3055;50.886;14.814;2023-01-28T03:59:09;25.27;;;16.93;;
6053;SDS011;3055;50.886;14.814;2023-01-28T04:01:36;25.63;;;16.40;;
6053;SDS011;3055;50.886;14.814;2023-01-28T04:04:03;23.40;;;17.00;;
6053;SDS011;3055;50.886;14.814;2023-01-28T04:06:31;26.27;;;16.47;;
6053;SDS011;3055;50.886;14.814;2023-01-28T04:08:58;27.17;;;16.80;;
6053;SDS011;3055;50.886;14.814;2023-01-28T04:11:25;23.07;;;16.20;;
6053;SDS011;3055;50.886;14.814;2023-01-28T04:13:53;31.97;;;17.43;;
6053;SDS011;3055;50.886;14.814;2023-01-28T04:16:20;26.70;;;17.43;;
6053;SDS011;3055;50.886;14.814;2023-01-28T04:18:47;24.30;;;16.27;;
6053;SDS011;3055;50.886;14.814;2023-01-28T04:21:14;25.13;;;16.17;;
6053;SDS011;3055;50.886;14.814;2023-01-28T04:23:42;24.63;;;16.83;;
6053;SDS011;3055;50.886;14.814;2023-01-28T04:26:09;22.53;;;16.20;;
6053;SDS011;3055;50.886;14.814;2023-01-28T04:28:36;28.50;;;16.27;;
6053;SDS011;3055;50.886;14.814;2023-01-28T04:31:03;22.03;;;15.47;;
6053;SDS011;3055;50.886;14.814;2023-01-28T04:33:30;24.83;;;15.77;;
6053;SDS011;3055;50.886;14.814;2023-01-28T04:35:58;24.50;;;16.33;;
6053;SDS011;3055;50.886;14.814;2023-01-28T04:38:25;22.23;;;15.37;;
6053;SDS011;3055;50.886;14.814;2023-01-28T04:40:53;24.70;;;16.30;;
6053;SDS011;3055;50.886;14.814;2023-01-28T04:43:20;20.87;;;14.90;;
6053;SDS011;3055;50.886;14.814;2023-01-28T04:45:48;23.87;;;16.20;;
6053;SDS011;3055;50.886;14.814;2023-01-28T04:48:15;21.80;;;15.40;;
6053;SDS011;3055;50.886;14.814;2023-01-28T04:50:42;24.77;;;15.73;;
6053;SDS011;3055;50.886;14.814;2023-01-28T04:53:10;25.43;;;15.47;;
6053;SDS011;3055;50.886;14.814;2023-01-28T04:55:37;21.77;;;15.50;;
6053;SDS011;3055;50.886;14.814;2023-01-28T04:58:06;22.00;;;15.10;;
6053;SDS011;3055;50.886;14.814;2023-01-28T05:00:33;22.77;;;15.17;;
6053;SDS011;3055;50.886;14.814;2023-01-28T05:03:00;21.17;;;15.90;;
6053;SDS011;3055;50.886;14.814;2023-01-28T05:05:27;23.87;;;15.67;;
6053;SDS011;3055;50.886;14.814;2023-01-28T05:07:55;21.20;;;15.40;;
6053;SDS011;3055;50.886;14.814;2023-01-28T05:10:23;21.20;;;14.83;;
6053;SDS011;3055;50.886;14.814;2023-01-28T05:12:51;24.53;;;16.07;;
6053;SDS011;3055;50.886;14.814;2023-01-28T05:15:19;26.17;;;16.50;;
6053;SDS011;3055;50.886;14.814;2023-01-28T05:17:47;24.80;;;16.83;;
6053;SDS011;3055;50.886;14.814;2023-01-28T05:20:14;23.60;;;16.37;;
6053;SDS011;3055;50.886;14.814;2023-01-28T05:22:41;24.53;;;15.37;;
6053;SDS011;3055;50.886;14.814;2023-01-28T05:25:08;22.23;;;15.27;;
6053;SDS011;3055;50.886;14.814;2023-01-28T05:27:35;23.43;;;15.17;;
6053;SDS011;3055;50.886;14.814;2023-01-28T05:30:03;22.07;;;14.73;;
6053;SDS011;3055;50.886;14.814;2023-01-28T05:32:33;23.27;;;14.03;;
6053;SDS011;3055;50.886;14.814;2023-01-28T05:35:03;17.33;;;12.50;;
6053;SDS011;3055;50.886;14.814;2023-01-28T05:37:30;17.20;;;11.70;;
6053;SDS011;3055;50.886;14.814;2023-01-28T05:39:57;15.93;;;11.47;;
6053;SDS011;3055;50.886;14.814;2023-01-28T05:42:24;16.97;;;12.30;;
6053;SDS011;3055;50.886;14.814;2023-01-28T05:44:51;15.93;;;11.63;;
6053;SDS011;3055;50.886;14.814;2023-01-28T05:47:18;14.73;;;11.03;;
6053;SDS011;3055;50.886;14.814;2023-01-28T05:49:47;14.47;;;11.30;;
6053;SDS011;3055;50.886;14.814;2023-01-28T05:52:14;19.40;;;12.07;;
6053;SDS011;3055;50.886;14.814;2023-01-28T05:54:44;15.20;;;11.47;;
6053;SDS011;3055;50.886;14.814;2023-01-28T05:57:11;16.33;;;11.80;;
6053;SDS011;3055;50.886;14.814;2023-01-28T05:59:38;17.40;;;12.07;;
6053;SDS011;3055;50.886;14.814;2023-01-28T06:02:05;16.43;;;11.93;;
6053;SDS011;3055;50.886;14.814;2023-01-28T06:04:32;16.10;;;11.73;;
6053;SDS011;3055;50.886;14.814;2023-01-28T06:07:01;18.50;;;12.87;;
6053;SDS011;3055;50.886;14.814;2023-01-28T06:09:28;19.17;;;12.67;;
6053;SDS011;3055;50.886;14.814;2023-01-28T06:11:55;20.60;;;12.60;;
6053;SDS011;3055;50.886;14.814;2023-01-28T06:14:22;17.57;;;12.93;;
6053;SDS011;3055;50.886;14.814;2023-01-28T06:16:49;16.27;;;11.17;;
6053;SDS011;3055;50.886;14.814;2023-01-28T06:19:17;19.07;;;11.17;;
6053;SDS011;3055;50.886;14.814;2023-01-28T06:21:44;15.80;;;10.87;;
6053;SDS011;3055;50.886;14.814;2023-01-28T06:24:12;17.87;;;12.03;;
6053;SDS011;3055;50.886;14.814;2023-01-28T06:26:39;17.37;;;12.17;;
6053;SDS011;3055;50.886;14.814;2023-01-28T06:29:06;20.80;;;13.73;;
6053;SDS011;3055;50.886;14.814;2023-01-28T06:31:34;24.97;;;14.63;;
6053;SDS011;3055;50.886;14.814;2023-01-28T06:34:01;24.77;;;15.63;;
6053;SDS011;3055;50.886;14.814;2023-01-28T06:36:28;29.93;;;16.77;;
6053;SDS011;3055;50.886;14.814;2023-01-28T06:38:55;27.43;;;17.50;;
6053;SDS011;3055;50.886;14.814;2023-01-28T06:41:24;30.73;;;18.50;;
6053;SDS011;3055;50.886;14.814;2023-01-28T06:43:51;26.93;;;18.77;;
6053;SDS011;3055;50.886;14.814;2023-01-28T06:46:18;31.33;;;17.50;;
6053;SDS011;3055;50.886;14.814;2023-01-28T06:48:45;31.83;;;19.30;;
6053;SDS011;3055;50.886;14.814;2023-01-28T06:51:12;25.60;;;17.37;;
6053;SDS011;3055;50.886;14.814;2023-01-28T06:53:39;33.20;;;18.20;;
6053;SDS011;3055;50.886;14.814;2023-01-28T06:56:07;27.93;;;18.23;;
6053;SDS011;3055;50.886;14.814;2023-01-28T06:58:35;26.77;;;18.90;;
6053;SDS011;3055;50.886;14.814;2023-01-28T07:01:02;26.67;;;17.20;;
6053;SDS011;3055;50.886;14.814;2023-01-28T07:03:29;29.37;;;18.70;;
6053;SDS011;3055;50.886;14.814;2023-01-28T07:05:57;30.63;;;17.87;;
6053;SDS011;3055;50.886;14.814;2023-01-28T07:08:24;25.97;;;15.73;;
6053;SDS011;3055;50.886;14.814;2023-01-28T07:10:51;30.00;;;16.83;;
6053;SDS011;3055;50.886;14.814;2023-01-28T07:13:18;33.77;;;18.37;;
6053;SDS011;3055;50.886;14.814;2023-01-28T07:15:46;24.47;;;17.10;;
6053;SDS011;3055;50.886;14.814;2023-01-28T07:18:14;28.27;;;18.23;;
6053;SDS011;3055;50.886;14.814;2023-01-28T07:20:41;27.73;;;16.67;;
6053;SDS011;3055;50.886;14.814;2023-01-28T07:23:09;27.30;;;17.10;;
6053;SDS011;3055;50.886;14.814;2023-01-28T07:25:36;29.00;;;18.00;;
6053;SDS011;3055;50.886;14.814;2023-01-28T07:28:03;26.90;;;16.00;;
6053;SDS011;3055;50.886;14.814;2023-01-28T07:30:30;28.47;;;16.80;;
6053;SDS011;3055;50.886;14.814;2023-01-28T07:32:59;26.73;;;17.77;;
6053;SDS011;3055;50.886;14.814;2023-01-28T07:35:26;29.07;;;17.30;;
6053;SDS011;3055;50.886;14.814;2023-01-28T07:37:54;31.43;;;19.13;;
6053;SDS011;3055;50.886;14.814;2023-01-28T07:40:22;29.53;;;17.53;;
6053;SDS011;3055;50.886;14.814;2023-01-28T07:42:49;29.00;;;17.50;;
6053;SDS011;3055;50.886;14.814;2023-01-28T07:45:17;28.00;;;17.97;;
6053;SDS011;3055;50.886;14.814;2023-01-28T07:47:44;25.77;;;17.07;;
6053;SDS011;3055;50.886;14.814;2023-01-28T07:50:20;23.50;;;16.07;;
6053;SDS011;3055;50.886;14.814;2023-01-28T07:52:48;27.40;;;16.20;;
6053;SDS011;3055;50.886;14.814;2023-01-28T07:55:15;25.03;;;15.50;;
6053;SDS011;3055;50.886;14.814;2023-01-28T07:57:49;25.47;;;15.23;;
6053;SDS011;3055;50.886;14.814;2023-01-28T08:00:17;30.13;;;20.87;;
6053;SDS011;3055;50.886;14.814;2023-01-28T08:02:45;25.43;;;18.13;;
6053;SDS011;3055;50.886;14.814;2023-01-28T08:05:14;23.27;;;15.63;;
6053;SDS011;3055;50.886;14.814;2023-01-28T08:07:44;25.43;;;14.00;;
6053;SDS011;3055;50.886;14.814;2023-01-28T08:10:12;20.97;;;14.77;;
6053;SDS011;3055;50.886;14.814;2023-01-28T08:12:40;20.10;;;13.50;;
6053;SDS011;3055;50.886;14.814;2023-01-28T08:15:07;21.23;;;12.63;;
6053;SDS011;3055;50.886;14.814;2023-01-28T08:17:35;16.57;;;13.10;;
6053;SDS011;3055;50.886;14.814;2023-01-28T08:20:02;15.67;;;11.67;;
6053;SDS011;3055;50.886;14.814;2023-01-28T08:22:30;16.67;;;13.47;;
6053;SDS011;3055;50.886;14.814;2023-01-28T08:24:58;19.57;;;13.73;;
6053;SDS011;3055;50.886;14.814;2023-01-28T08:27:25;17.13;;;13.10;;
6053;SDS011;3055;50.886;14.814;2023-01-28T08:29:52;19.93;;;14.10;;
6053;SDS011;3055;50.886;14.814;2023-01-28T08:32:19;17.07;;;12.50;;
6053;SDS011;3055;50.886;14.814;2023-01-28T08:34:46;17.27;;;12.30;;
6053;SDS011;3055;50.886;14.814;2023-01-28T08:37:13;16.90;;;12.57;;
6053;SDS011;3055;50.886;14.814;2023-01-28T08:39:40;18.07;;;13.53;;
6053;SDS011;3055;50.886;14.814;2023-01-28T08:42:09;19.77;;;13.20;;
6053;SDS011;3055;50.886;14.814;2023-01-28T08:44:36;19.30;;;11.83;;
6053;SDS011;3055;50.886;14.814;2023-01-28T08:47:03;16.00;;;12.43;;
6053;SDS011;3055;50.886;14.814;2023-01-28T08:49:30;14.00;;;11.70;;
6053;SDS011;3055;50.886;14.814;2023-01-28T08:51:57;13.40;;;10.50;;
6053;SDS011;3055;50.886;14.814;2023-01-28T08:54:24;16.13;;;11.33;;
6053;SDS011;3055;50.886;14.814;2023-01-28T08:56:51;20.60;;;16.20;;
6053;SDS011;3055;50.886;14.814;2023-01-28T08:59:20;19.10;;;16.43;;
6053;SDS011;3055;50.886;14.814;2023-01-28T09:01:47;20.13;;;14.53;;
6053;SDS011;3055;50.886;14.814;2023-01-28T09:04:14;14.93;;;11.20;;
6053;SDS011;3055;50.886;14.814;2023-01-28T09:06:41;12.20;;;10.10;;
6053;SDS011;3055;50.886;14.814;2023-01-28T09:09:08;12.33;;;10.13;;
6053;SDS011;3055;50.886;14.814;2023-01-28T09:11:36;14.20;;;10.57;;
6053;SDS011;3055;50.886;14.814;2023-01-28T09:14:03;12.47;;;9.67;;
6053;SDS011;3055;50.886;14.814;2023-01-28T09:16:31;12.30;;;10.13;;
6053;SDS011;3055;50.886;14.814;2023-01-28T09:18:58;11.00;;;9.30;;
6053;SDS011;3055;50.886;14.814;2023-01-28T09:21:25;10.53;;;8.67;;
6053;SDS011;3055;50.886;14.814;2023-01-28T09:23:52;12.40;;;9.67;;
6053;SDS011;3055;50.886;14.814;2023-01-28T09:26:20;11.47;;;8.77;;
6053;SDS011;3055;50.886;14.814;2023-01-28T09:28:48;9.77;;;8.30;;
6053;SDS011;3055;50.886;14.814;2023-01-28T09:31:15;10.37;;;9.27;;
6053;SDS011;3055;50.886;14.814;2023-01-28T09:33:43;10.17;;;8.93;;
6053;SDS011;3055;50.886;14.814;2023-01-28T09:36:12;10.23;;;8.17;;
6053;SDS011;3055;50.886;14.814;2023-01-28T09:38:39;9.87;;;8.40;;
6053;SDS011;3055;50.886;14.814;2023-01-28T09:41:22;8.13;;;7.33;;
6053;SDS011;3055;50.886;14.814;2023-01-28T09:43:58;9.30;;;8.07;;
6053;SDS011;3055;50.886;14.814;2023-01-28T09:46:32;11.37;;;10.13;;
6053;SDS011;3055;50.886;14.814;2023-01-28T09:49:04;8.57;;;7.67;;
6053;SDS011;3055;50.886;14.814;2023-01-28T09:51:38;9.10;;;7.93;;
6053;SDS011;3055;50.886;14.814;2023-01-28T09:54:11;10.20;;;9.03;;
6053;SDS011;3055;50.886;14.814;2023-01-28T09:56:46;9.20;;;8.20;;
6053;SDS011;3055;50.886;14.814;2023-01-28T09:59:19;11.07;;;8.57;;
6053;SDS011;3055;50.886;14.814;2023-01-28T10:01:50;8.57;;;7.47;;
6053;SDS011;3055;50.886;14.814;2023-01-28T10:04:38;9.33;;;7.97;;
6053;SDS011;3055;50.886;14.814;2023-01-28T10:07:19;17.23;;;7.50;;
6053;SDS011;3055;50.886;14.814;2023-01-28T10:09:54;8.67;;;7.67;;
6053;SDS011;3055;50.886;14.814;2023-01-28T10:12:31;9.67;;;7.73;;
6053;SDS011;3055;50.886;14.814;2023-01-28T10:15:12;8.77;;;7.07;;
6053;SDS011;3055;50.886;14.814;2023-01-28T10:17:52;9.63;;;7.63;;
6053;SDS011;3055;50.886;14.814;2023-01-28T10:20:25;9.07;;;7.70;;
6053;SDS011;3055;50.886;14.814;2023-01-28T10:22:57;12.37;;;8.90;;
6053;SDS011;3055;50.886;14.814;2023-01-28T10:25:30;9.47;;;8.20;;
6053;SDS011;3055;50.886;14.814;2023-01-28T10:27:59;7.93;;;6.83;;
6053;SDS011;3055;50.886;14.814;2023-01-28T10:30:29;6.77;;;6.17;;
6053;SDS011;3055;50.886;14.814;2023-01-28T10:33:00;8.43;;;6.03;;
6053;SDS011;3055;50.886;14.814;2023-01-28T10:35:32;8.10;;;6.37;;
6053;SDS011;3055;50.886;14.814;2023-01-28T10:38:04;7.87;;;6.77;;
6053;SDS011;3055;50.886;14.814;2023-01-28T10:40:35;8.90;;;6.63;;
6053;SDS011;3055;50.886;14.814;2023-01-28T10:43:02;7.03;;;6.03;;
6053;SDS011;3055;50.886;14.814;2023-01-28T10:45:29;6.43;;;5.83;;
6053;SDS011;3055;50.886;14.814;2023-01-28T10:48:02;6.77;;;5.93;;
6053;SDS011;3055;50.886;14.814;2023-01-28T10:50:35;5.93;;;5.30;;
6053;SDS011;3055;50.886;14.814;2023-01-28T10:53:03;6.77;;;5.70;;
6053;SDS011;3055;50.886;14.814;2023-01-28T10:55:33;5.83;;;5.13;;
6053;SDS011;3055;50.886;14.814;2023-01-28T10:58:02;7.33;;;6.03;;
6053;SDS011;3055;50.886;14.814;2023-01-28T11:00:32;6.03;;;5.43;;
6053;SDS011;3055;50.886;14.814;2023-01-28T11:03:00;6.37;;;5.47;;
6053;SDS011;3055;50.886;14.814;2023-01-28T11:05:28;6.47;;;5.40;;
6053;SDS011;3055;50.886;14.814;2023-01-28T11:08:04;8.97;;;6.33;;
6053;SDS011;3055;50.886;14.814;2023-01-28T11:10:32;6.20;;;5.60;;
6053;SDS011;3055;50.886;14.814;2023-01-28T11:13:01;7.80;;;5.90;;
6053;SDS011;3055;50.886;14.814;2023-01-28T11:15:31;6.37;;;5.13;;
6053;SDS011;3055;50.886;14.814;2023-01-28T11:17:59;6.30;;;5.70;;
6053;SDS011;3055;50.886;14.814;2023-01-28T11:20:29;9.70;;;6.03;;
6053;SDS011;3055;50.886;14.814;2023-01-28T11:23:00;5.37;;;4.80;;
6053;SDS011;3055;50.886;14.814;2023-01-28T11:25:30;5.67;;;5.10;;
6053;SDS011;3055;50.886;14.814;2023-01-28T11:27:59;6.00;;;5.37;;
6053;SDS011;3055;50.886;14.814;2023-01-28T11:30:30;7.63;;;5.20;;
6053;SDS011;3055;50.886;14.814;2023-01-28T11:33:02;7.63;;;6.13;;
6053;SDS011;3055;50.886;14.814;2023-01-28T11:35:33;5.37;;;4.87;;
6053;SDS011;3055;50.886;14.814;2023-01-28T11:38:00;6.13;;;5.47;;
6053;SDS011;3055;50.886;14.814;2023-01-28T11:40:27;5.80;;;5.30;;
6053;SDS011;3055;50.886;14.814;2023-01-28T11:42:56;5.63;;;5.00;;
6053;SDS011;3055;50.886;14.814;2023-01-28T11:45:26;7.40;;;5.87;;
6053;SDS011;3055;50.886;14.814;2023-01-28T11:48:10;9.80;;;6.70;;
6053;SDS011;3055;50.886;14.814;2023-01-28T11:50:46;19.27;;;10.53;;
6053;SDS011;3055;50.886;14.814;2023-01-28T11:56:22;14.30;;;8.43;;
6053;SDS011;3055;50.886;14.814;2023-01-28T11:59:03;10.30;;;7.40;;
6053;SDS011;3055;50.886;14.814;2023-01-28T12:01:45;6.50;;;5.13;;
6053;SDS011;3055;50.886;14.814;2023-01-28T12:04:18;4.10;;;3.20;;
6053;SDS011;3055;50.886;14.814;2023-01-28T12:06:55;5.83;;;4.37;;
6053;SDS011;3055;50.886;14.814;2023-01-28T12:09:32;4.33;;;3.93;;
6053;SDS011;3055;50.886;14.814;2023-01-28T12:12:13;10.07;;;6.33;;
6053;SDS011;3055;50.886;14.814;2023-01-28T12:17:51;4.53;;;4.13;;
6053;SDS011;3055;50.886;14.814;2023-01-28T12:20:28;6.27;;;4.67;;
6053;SDS011;3055;50.886;14.814;2023-01-28T12:23:22;5.33;;;3.90;;
6053;SDS011;3055;50.886;14.814;2023-01-28T12:26:09;5.30;;;4.73;;
6053;SDS011;3055;50.886;14.814;2023-01-28T12:28:46;4.30;;;3.53;;
6053;SDS011;3055;50.886;14.814;2023-01-28T12:34:22;3.90;;;3.50;;
6053;SDS011;3055;50.886;14.814;2023-01-28T12:37:10;5.60;;;4.23;;
6053;SDS011;3055;50.886;14.814;2023-01-28T12:39:50;5.27;;;4.23;;
6053;SDS011;3055;50.886;14.814;2023-01-28T12:42:31;6.70;;;4.40;;
6053;SDS011;3055;50.886;14.814;2023-01-28T12:45:03;8.87;;;4.43;;
6053;SDS011;3055;50.886;14.814;2023-01-28T12:47:42;7.27;;;4.70;;
6053;SDS011;3055;50.886;14.814;2023-01-28T12:50:16;5.67;;;3.60;;
6053;SDS011;3055;50.886;14.814;2023-01-28T12:52:48;6.70;;;3.77;;
6053;SDS011;3055;50.886;14.814;2023-01-28T12:55:19;3.83;;;3.43;;
6053;SDS011;3055;50.886;14.814;2023-01-28T12:57:55;3.60;;;3.30;;
6053;SDS011;3055;50.886;14.814;2023-01-28T13:00:26;3.47;;;3.17;;
6053;SDS011;3055;50.886;14.814;2023-01-28T13:02:57;4.27;;;3.40;;
6053;SDS011;3055;50.886;14.814;2023-01-28T13:05:36;3.47;;;3.27;;
6053;SDS011;3055;50.886;14.814;2023-01-28T13:08:09;6.37;;;3.90;;
6053;SDS011;3055;50.886;14.814;2023-01-28T13:10:39;5.57;;;4.30;;
6053;SDS011;3055;50.886;14.814;2023-01-28T13:13:11;4.87;;;4.03;;
6053;SDS011;3055;50.886;14.814;2023-01-28T13:15:43;4.67;;;4.20;;
6053;SDS011;3055;50.886;14.814;2023-01-28T13:20:56;4.70;;;4.30;;
6053;SDS011;3055;50.886;14.814;2023-01-28T13:23:25;5.70;;;4.70;;
6053;SDS011;3055;50.886;14.814;2023-01-28T13:26:07;4.60;;;3.80;;
6053;SDS011;3055;50.886;14.814;2023-01-28T13:28:36;6.20;;;4.50;;
6053;SDS011;3055;50.886;14.814;2023-01-28T13:31:05;4.50;;;4.07;;
6053;SDS011;3055;50.886;14.814;2023-01-28T13:33:34;4.80;;;4.30;;
6053;SDS011;3055;50.886;14.814;2023-01-28T13:36:04;4.37;;;3.97;;
6053;SDS011;3055;50.886;14.814;2023-01-28T13:38:46;6.97;;;4.33;;
6053;SDS011;3055;50.886;14.814;2023-01-28T13:41:23;5.83;;;5.33;;
6053;SDS011;3055;50.886;14.814;2023-01-28T13:44:01;20.27;;;13.57;;
6053;SDS011;3055;50.886;14.814;2023-01-28T13:46:30;14.13;;;10.23;;
6053;SDS011;3055;50.886;14.814;2023-01-28T13:48:57;19.73;;;12.10;;
6053;SDS011;3055;50.886;14.814;2023-01-28T13:51:28;29.37;;;15.27;;
6053;SDS011;3055;50.886;14.814;2023-01-28T13:53:58;16.10;;;10.07;;
6053;SDS011;3055;50.886;14.814;2023-01-28T13:56:29;6.73;;;6.03;;
6053;SDS011;3055;50.886;14.814;2023-01-28T13:59:10;6.83;;;6.13;;
6053;SDS011;3055;50.886;14.814;2023-01-28T14:02:13;7.43;;;5.93;;
6053;SDS011;3055;50.886;14.814;2023-01-28T14:05:10;8.73;;;6.57;;
6053;SDS011;3055;50.886;14.814;2023-01-28T14:11:04;4.47;;;3.93;;
6053;SDS011;3055;50.886;14.814;2023-01-28T14:14:00;5.03;;;4.53;;
6053;SDS011;3055;50.886;14.814;2023-01-28T14:16:54;6.90;;;4.13;;
6053;SDS011;3055;50.886;14.814;2023-01-28T14:19:26;4.30;;;3.90;;
6053;SDS011;3055;50.886;14.814;2023-01-28T14:21:56;4.60;;;4.20;;
6053;SDS011;3055;50.886;14.814;2023-01-28T14:24:23;4.53;;;4.07;;
6053;SDS011;3055;50.886;14.814;2023-01-28T14:26:54;3.73;;;3.33;;
6053;SDS011;3055;50.886;14.814;2023-01-28T14:29:33;4.47;;;3.90;;
6053;SDS011;3055;50.886;14.814;2023-01-28T14:32:11;7.53;;;5.03;;
6053;SDS011;3055;50.886;14.814;2023-01-28T14:34:42;5.47;;;3.83;;
6053;SDS011;3055;50.886;14.814;2023-01-28T14:37:12;6.80;;;4.13;;
6053;SDS011;3055;50.886;14.814;2023-01-28T14:39:42;5.10;;;4.63;;
6053;SDS011;3055;50.886;14.814;2023-01-28T14:42:15;4.37;;;3.97;;
6053;SDS011;3055;50.886;14.814;2023-01-28T14:44:47;6.90;;;4.13;;
6053;SDS011;3055;50.886;14.814;2023-01-28T14:47:31;6.27;;;4.50;;
6053;SDS011;3055;50.886;14.814;2023-01-28T14:56:03;4.20;;;3.80;;
6053;SDS011;3055;50.886;14.814;2023-01-28T14:58:40;4.40;;;4.00;;
6053;SDS011;3055;50.886;14.814;2023-01-28T15:01:18;4.50;;;4.00;;
6053;SDS011;3055;50.886;14.814;2023-01-28T15:03:47;5.47;;;4.17;;
6053;SDS011;3055;50.886;14.814;2023-01-28T15:06:16;4.40;;;3.83;;
6053;SDS011;3055;50.886;14.814;2023-01-28T15:08:45;11.43;;;8.20;;
6053;SDS011;3055;50.886;14.814;2023-01-28T15:11:13;23.57;;;13.87;;
6053;SDS011;3055;50.886;14.814;2023-01-28T15:13:43;14.50;;;9.53;;
6053;SDS011;3055;50.886;14.814;2023-01-28T15:16:16;7.07;;;4.67;;
6053;SDS011;3055;50.886;14.814;2023-01-28T15:18:45;5.17;;;3.87;;
6053;SDS011;3055;50.886;14.814;2023-01-28T15:21:19;5.37;;;3.63;;
6053;SDS011;3055;50.886;14.814;2023-01-28T15:23:47;4.27;;;3.50;;
6053;SDS011;3055;50.886;14.814;2023-01-28T15:26:18;4.80;;;3.77;;
6053;SDS011;3055;50.886;14.814;2023-01-28T15:28:47;4.03;;;3.67;;